sensor_id;sensor_type;location;lat;lon;timestamp;P1;durP1;ratioP1;P2;durP2;ratioP2
3095;SDS011;1558;42.700;23.360;2024-01-16T00:02:25;13.93;;;11.93;;
3095;SDS011;1558;42.700;23.360;2024-01-16T00:04:54;15.77;;;12.37;;
3095;SDS011;1558;42.700;23.360;2024-01-16T00:07:22;16.20;;;13.27;;
3095;SDS011;1558;42.700;23.360;2024-01-16T00:09:50;14.27;;;12.03;;
3095;SDS011;1558;42.700;23.360;2024-01-16T00:12:20;15.10;;;13.23;;
3095;SDS011;1558;42.700;23.360;2024-01-16T00:14:50;15.43;;;13.53;;
3095;SDS011;1558;42.700;23.360;2024-01-16T00:17:18;16.67;;;12.93;;
3095;SDS011;1558;42.700;23.360;2024-01-16T00:19:46;17.47;;;13.10;;
3095;SDS011;1558;42.700;23.360;2024-01-16T00:22:14;17.57;;;14.10;;
3095;SDS011;1558;42.700;23.360;2024-01-16T00:24:43;16.87;;;14.33;;
3095;SDS011;1558;42.700;23.360;2024-01-16T00:27:12;18.60;;;15.30;;
3095;SDS011;1558;42.700;23.360;2024-01-16T00:29:40;18.93;;;15.03;;
3095;SDS011;1558;42.700;23.360;2024-01-16T00:32:10;17.83;;;15.00;;
3095;SDS011;1558;42.700;23.360;2024-01-16T00:34:42;21.30;;;14.70;;
3095;SDS011;1558;42.700;23.360;2024-01-16T00:37:10;29.37;;;20.40;;
3095;SDS011;1558;42.700;23.360;2024-01-16T00:39:38;23.90;;;17.37;;
3095;SDS011;1558;42.700;23.360;2024-01-16T00:42:07;20.07;;;15.57;;
3095;SDS011;1558;42.700;23.360;2024-01-16T00:44:35;18.67;;;15.17;;
3095;SDS011;1558;42.700;23.360;2024-01-16T00:47:03;19.97;;;15.27;;
3095;SDS011;1558;42.700;23.360;2024-01-16T00:49:33;19.33;;;15.13;;
3095;SDS011;1558;42.700;23.360;2024-01-16T00:52:03;20.67;;;16.37;;
3095;SDS011;1558;42.700;23.360;2024-01-16T00:54:33;19.17;;;16.73;;
3095;SDS011;1558;42.700;23.360;2024-01-16T00:57:01;43.53;;;29.27;;
3095;SDS011;1558;42.700;23.360;2024-01-16T00:59:29;27.30;;;20.13;;
3095;SDS011;1558;42.700;23.360;2024-01-16T01:01:57;20.93;;;15.80;;
3095;SDS011;1558;42.700;23.360;2024-01-16T01:04:25;18.13;;;15.80;;
3095;SDS011;1558;42.700;23.360;2024-01-16T01:06:55;19.60;;;16.50;;
3095;SDS011;1558;42.700;23.360;2024-01-16T01:09:23;23.47;;;18.20;;
3095;SDS011;1558;42.700;23.360;2024-01-16T01:11:51;22.83;;;18.00;;
3095;SDS011;1558;42.700;23.360;2024-01-16T01:14:19;23.43;;;19.47;;
3095;SDS011;1558;42.700;23.360;2024-01-16T01:16:48;18.80;;;16.20;;
3095;SDS011;1558;42.700;23.360;2024-01-16T01:19:16;16.87;;;13.87;;
3095;SDS011;1558;42.700;23.360;2024-01-16T01:21:44;18.17;;;14.10;;
3095;SDS011;1558;42.700;23.360;2024-01-16T01:24:14;17.90;;;14.20;;
3095;SDS011;1558;42.700;23.360;2024-01-16T01:26:42;18.03;;;14.73;;
3095;SDS011;1558;42.700;23.360;2024-01-16T01:29:11;17.30;;;14.07;;
3095;SDS011;1558;42.700;23.360;2024-01-16T01:31:39;16.17;;;13.80;;
3095;SDS011;1558;42.700;23.360;2024-01-16T01:34:07;16.70;;;13.43;;
3095;SDS011;1558;42.700;23.360;2024-01-16T01:36:36;16.90;;;13.90;;
3095;SDS011;1558;42.700;23.360;2024-01-16T01:39:04;14.67;;;12.67;;
3095;SDS011;1558;42.700;23.360;2024-01-16T01:41:34;19.23;;;14.13;;
3095;SDS011;1558;42.700;23.360;2024-01-16T01:44:02;14.97;;;12.53;;
3095;SDS011;1558;42.700;23.360;2024-01-16T01:46:31;15.67;;;12.37;;
3095;SDS011;1558;42.700;23.360;2024-01-16T01:49:00;18.83;;;14.80;;
3095;SDS011;1558;42.700;23.360;2024-01-16T01:51:30;18.97;;;14.50;;
3095;SDS011;1558;42.700;23.360;2024-01-16T01:54:00;28.07;;;19.00;;
3095;SDS011;1558;42.700;23.360;2024-01-16T01:56:29;15.17;;;11.30;;
3095;SDS011;1558;42.700;23.360;2024-01-16T01:58:58;13.93;;;12.03;;
3095;SDS011;1558;42.700;23.360;2024-01-16T02:01:28;11.90;;;10.50;;
3095;SDS011;1558;42.700;23.360;2024-01-16T02:03:58;14.47;;;12.13;;
3095;SDS011;1558;42.700;23.360;2024-01-16T02:06:28;16.57;;;12.63;;
3095;SDS011;1558;42.700;23.360;2024-01-16T02:08:57;13.07;;;10.87;;
3095;SDS011;1558;42.700;23.360;2024-01-16T02:11:26;13.10;;;10.57;;
3095;SDS011;1558;42.700;23.360;2024-01-16T02:13:54;43.43;;;27.00;;
3095;SDS011;1558;42.700;23.360;2024-01-16T02:16:24;13.87;;;12.10;;
3095;SDS011;1558;42.700;23.360;2024-01-16T02:18:52;11.97;;;10.67;;
3095;SDS011;1558;42.700;23.360;2024-01-16T02:21:21;13.90;;;10.97;;
3095;SDS011;1558;42.700;23.360;2024-01-16T02:23:51;14.47;;;10.97;;
3095;SDS011;1558;42.700;23.360;2024-01-16T02:26:19;14.77;;;13.10;;
3095;SDS011;1558;42.700;23.360;2024-01-16T02:28:48;31.97;;;22.53;;
3095;SDS011;1558;42.700;23.360;2024-01-16T02:31:17;38.73;;;23.40;;
3095;SDS011;1558;42.700;23.360;2024-01-16T02:33:45;14.27;;;12.33;;
3095;SDS011;1558;42.700;23.360;2024-01-16T02:36:14;22.17;;;16.33;;
3095;SDS011;1558;42.700;23.360;2024-01-16T02:38:42;16.53;;;13.77;;
3095;SDS011;1558;42.700;23.360;2024-01-16T02:41:14;15.87;;;14.00;;
3095;SDS011;1558;42.700;23.360;2024-01-16T02:43:43;15.13;;;12.47;;
3095;SDS011;1558;42.700;23.360;2024-01-16T02:46:12;14.23;;;12.07;;
3095;SDS011;1558;42.700;23.360;2024-01-16T02:48:40;17.13;;;13.27;;
3095;SDS011;1558;42.700;23.360;2024-01-16T02:51:09;14.93;;;12.47;;
3095;SDS011;1558;42.700;23.360;2024-01-16T02:53:38;14.90;;;13.33;;
3095;SDS011;1558;42.700;23.360;2024-01-16T02:56:07;14.80;;;12.27;;
3095;SDS011;1558;42.700;23.360;2024-01-16T02:58:37;15.73;;;14.03;;
3095;SDS011;1558;42.700;23.360;2024-01-16T03:01:05;14.63;;;12.73;;
3095;SDS011;1558;42.700;23.360;2024-01-16T03:03:34;16.67;;;14.17;;
3095;SDS011;1558;42.700;23.360;2024-01-16T03:06:02;15.47;;;13.43;;
3095;SDS011;1558;42.700;23.360;2024-01-16T03:08:31;20.67;;;15.50;;
3095;SDS011;1558;42.700;23.360;2024-01-16T03:10:59;18.93;;;15.83;;
3095;SDS011;1558;42.700;23.360;2024-01-16T03:13:27;17.63;;;15.73;;
3095;SDS011;1558;42.700;23.360;2024-01-16T03:15:57;17.37;;;15.57;;
3095;SDS011;1558;42.700;23.360;2024-01-16T03:18:25;15.10;;;12.90;;
3095;SDS011;1558;42.700;23.360;2024-01-16T03:20:54;12.93;;;10.40;;
3095;SDS011;1558;42.700;23.360;2024-01-16T03:23:22;8.90;;;7.80;;
3095;SDS011;1558;42.700;23.360;2024-01-16T03:25:50;8.93;;;5.80;;
3095;SDS011;1558;42.700;23.360;2024-01-16T03:28:19;5.13;;;4.63;;
3095;SDS011;1558;42.700;23.360;2024-01-16T03:30:47;4.90;;;4.50;;
3095;SDS011;1558;42.700;23.360;2024-01-16T03:33:17;5.67;;;5.07;;
3095;SDS011;1558;42.700;23.360;2024-01-16T03:35:45;5.60;;;5.00;;
3095;SDS011;1558;42.700;23.360;2024-01-16T03:38:14;6.00;;;5.40;;
3095;SDS011;1558;42.700;23.360;2024-01-16T03:40:42;5.90;;;5.30;;
3095;SDS011;1558;42.700;23.360;2024-01-16T03:43:11;5.70;;;5.20;;
3095;SDS011;1558;42.700;23.360;2024-01-16T03:45:39;6.13;;;5.53;;
3095;SDS011;1558;42.700;23.360;2024-01-16T03:48:07;6.47;;;5.87;;
3095;SDS011;1558;42.700;23.360;2024-01-16T03:50:37;5.57;;;5.07;;
3095;SDS011;1558;42.700;23.360;2024-01-16T03:53:10;5.20;;;4.80;;
3095;SDS011;1558;42.700;23.360;2024-01-16T03:55:39;5.70;;;5.20;;
3095;SDS011;1558;42.700;23.360;2024-01-16T03:58:07;5.47;;;4.97;;
3095;SDS011;1558;42.700;23.360;2024-01-16T04:00:38;4.43;;;4.03;;
3095;SDS011;1558;42.700;23.360;2024-01-16T04:03:07;4.57;;;4.13;;
3095;SDS011;1558;42.700;23.360;2024-01-16T04:05:36;5.27;;;4.77;;
3095;SDS011;1558;42.700;23.360;2024-01-16T04:08:05;4.30;;;3.90;;
3095;SDS011;1558;42.700;23.360;2024-01-16T04:10:33;4.10;;;3.70;;
3095;SDS011;1558;42.700;23.360;2024-01-16T04:13:01;3.40;;;3.10;;
3095;SDS011;1558;42.700;23.360;2024-01-16T04:15:30;4.07;;;3.70;;
3095;SDS011;1558;42.700;23.360;2024-01-16T04:17:58;3.73;;;3.43;;
3095;SDS011;1558;42.700;23.360;2024-01-16T04:20:27;4.10;;;3.70;;
3095;SDS011;1558;42.700;23.360;2024-01-16T04:22:56;4.60;;;4.13;;
3095;SDS011;1558;42.700;23.360;2024-01-16T04:25:25;5.57;;;4.00;;
3095;SDS011;1558;42.700;23.360;2024-01-16T04:27:53;4.00;;;3.70;;
3095;SDS011;1558;42.700;23.360;2024-01-16T04:30:21;3.90;;;3.60;;
3095;SDS011;1558;42.700;23.360;2024-01-16T04:32:49;3.50;;;3.20;;
3095;SDS011;1558;42.700;23.360;2024-01-16T04:35:18;3.60;;;3.30;;
3095;SDS011;1558;42.700;23.360;2024-01-16T04:37:46;3.50;;;3.20;;
3095;SDS011;1558;42.700;23.360;2024-01-16T04:40:16;3.10;;;2.90;;
3095;SDS011;1558;42.700;23.360;2024-01-16T04:42:44;3.30;;;2.63;;
3095;SDS011;1558;42.700;23.360;2024-01-16T04:45:12;3.00;;;2.80;;
3095;SDS011;1558;42.700;23.360;2024-01-16T04:47:40;2.97;;;2.67;;
3095;SDS011;1558;42.700;23.360;2024-01-16T04:50:09;3.00;;;2.57;;
3095;SDS011;1558;42.700;23.360;2024-01-16T04:52:37;3.00;;;2.70;;
3095;SDS011;1558;42.700;23.360;2024-01-16T04:55:07;3.00;;;2.70;;
3095;SDS011;1558;42.700;23.360;2024-01-16T04:57:36;3.40;;;3.10;;
3095;SDS011;1558;42.700;23.360;2024-01-16T05:00:05;2.90;;;2.70;;
3095;SDS011;1558;42.700;23.360;2024-01-16T05:02:34;3.07;;;2.87;;
3095;SDS011;1558;42.700;23.360;2024-01-16T05:05:03;3.40;;;3.10;;
3095;SDS011;1558;42.700;23.360;2024-01-16T05:07:34;3.47;;;3.17;;
3095;SDS011;1558;42.700;23.360;2024-01-16T05:10:03;3.37;;;3.07;;
3095;SDS011;1558;42.700;23.360;2024-01-16T05:12:31;3.40;;;3.10;;
3095;SDS011;1558;42.700;23.360;2024-01-16T05:15:01;3.30;;;3.00;;
3095;SDS011;1558;42.700;23.360;2024-01-16T05:17:29;4.77;;;4.37;;
3095;SDS011;1558;42.700;23.360;2024-01-16T05:19:57;3.30;;;2.97;;
3095;SDS011;1558;42.700;23.360;2024-01-16T05:22:26;3.20;;;2.90;;
3095;SDS011;1558;42.700;23.360;2024-01-16T05:24:54;3.20;;;2.90;;
3095;SDS011;1558;42.700;23.360;2024-01-16T05:27:22;4.57;;;4.10;;
3095;SDS011;1558;42.700;23.360;2024-01-16T05:29:51;3.13;;;2.83;;
3095;SDS011;1558;42.700;23.360;2024-01-16T05:32:21;3.33;;;2.77;;
3095;SDS011;1558;42.700;23.360;2024-01-16T05:34:49;3.20;;;2.90;;
3095;SDS011;1558;42.700;23.360;2024-01-16T05:37:18;3.20;;;2.90;;
3095;SDS011;1558;42.700;23.360;2024-01-16T05:39:46;3.40;;;3.10;;
3095;SDS011;1558;42.700;23.360;2024-01-16T05:42:14;3.67;;;3.27;;
3095;SDS011;1558;42.700;23.360;2024-01-16T05:44:43;3.30;;;2.87;;
3095;SDS011;1558;42.700;23.360;2024-01-16T05:47:12;3.50;;;3.00;;
3095;SDS011;1558;42.700;23.360;2024-01-16T05:49:41;3.30;;;2.90;;
3095;SDS011;1558;42.700;23.360;2024-01-16T05:52:10;3.30;;;3.00;;
3095;SDS011;1558;42.700;23.360;2024-01-16T05:54:38;3.40;;;3.10;;
3095;SDS011;1558;42.700;23.360;2024-01-16T05:57:07;4.43;;;3.07;;
3095;SDS011;1558;42.700;23.360;2024-01-16T05:59:35;3.10;;;2.80;;
3095;SDS011;1558;42.700;23.360;2024-01-16T06:02:03;3.50;;;3.20;;
3095;SDS011;1558;42.700;23.360;2024-01-16T06:04:32;3.30;;;2.97;;
3095;SDS011;1558;42.700;23.360;2024-01-16T06:07:01;3.70;;;3.40;;
3095;SDS011;1558;42.700;23.360;2024-01-16T06:09:32;3.20;;;2.90;;
3095;SDS011;1558;42.700;23.360;2024-01-16T06:12:00;3.30;;;3.00;;
3095;SDS011;1558;42.700;23.360;2024-01-16T06:14:30;3.60;;;3.30;;
3095;SDS011;1558;42.700;23.360;2024-01-16T06:16:58;4.07;;;3.50;;
3095;SDS011;1558;42.700;23.360;2024-01-16T06:19:26;3.40;;;3.10;;
3095;SDS011;1558;42.700;23.360;2024-01-16T06:21:55;3.60;;;3.30;;
3095;SDS011;1558;42.700;23.360;2024-01-16T06:24:24;4.17;;;3.27;;
3095;SDS011;1558;42.700;23.360;2024-01-16T06:26:52;3.47;;;3.17;;
3095;SDS011;1558;42.700;23.360;2024-01-16T06:29:21;3.60;;;3.30;;
3095;SDS011;1558;42.700;23.360;2024-01-16T06:32:00;3.57;;;3.27;;
3095;SDS011;1558;42.700;23.360;2024-01-16T06:34:28;3.27;;;2.97;;
3095;SDS011;1558;42.700;23.360;2024-01-16T06:36:57;3.77;;;3.47;;
3095;SDS011;1558;42.700;23.360;2024-01-16T06:39:27;5.97;;;4.50;;
3095;SDS011;1558;42.700;23.360;2024-01-16T06:41:55;3.73;;;3.43;;
3095;SDS011;1558;42.700;23.360;2024-01-16T06:44:23;4.57;;;3.67;;
3095;SDS011;1558;42.700;23.360;2024-01-16T06:46:52;4.93;;;3.97;;
3095;SDS011;1558;42.700;23.360;2024-01-16T06:49:20;4.83;;;3.97;;
3095;SDS011;1558;42.700;23.360;2024-01-16T06:51:48;4.70;;;4.20;;
3095;SDS011;1558;42.700;23.360;2024-01-16T06:54:17;4.43;;;4.00;;
3095;SDS011;1558;42.700;23.360;2024-01-16T06:56:48;4.83;;;4.33;;
3095;SDS011;1558;42.700;23.360;2024-01-16T06:59:16;4.83;;;4.33;;
3095;SDS011;1558;42.700;23.360;2024-01-16T07:01:46;4.50;;;4.10;;
3095;SDS011;1558;42.700;23.360;2024-01-16T07:04:14;5.30;;;4.80;;
3095;SDS011;1558;42.700;23.360;2024-01-16T07:06:43;5.33;;;4.80;;
3095;SDS011;1558;42.700;23.360;2024-01-16T07:09:11;6.20;;;4.57;;
3095;SDS011;1558;42.700;23.360;2024-01-16T07:11:39;4.70;;;4.30;;
3095;SDS011;1558;42.700;23.360;2024-01-16T07:14:11;4.13;;;3.73;;
3095;SDS011;1558;42.700;23.360;2024-01-16T07:16:39;4.60;;;4.20;;
3095;SDS011;1558;42.700;23.360;2024-01-16T07:19:08;3.97;;;3.67;;
3095;SDS011;1558;42.700;23.360;2024-01-16T07:21:36;3.80;;;3.50;;
3095;SDS011;1558;42.700;23.360;2024-01-16T07:24:04;4.30;;;3.90;;
3095;SDS011;1558;42.700;23.360;2024-01-16T07:26:33;4.37;;;3.97;;
3095;SDS011;1558;42.700;23.360;2024-01-16T07:29:01;4.63;;;4.07;;
3095;SDS011;1558;42.700;23.360;2024-01-16T07:31:31;4.50;;;4.10;;
3095;SDS011;1558;42.700;23.360;2024-01-16T07:34:00;3.53;;;3.00;;
3095;SDS011;1558;42.700;23.360;2024-01-16T07:36:29;3.03;;;2.73;;
3095;SDS011;1558;42.700;23.360;2024-01-16T07:38:57;3.97;;;3.50;;
3095;SDS011;1558;42.700;23.360;2024-01-16T07:41:27;3.60;;;3.07;;
3095;SDS011;1558;42.700;23.360;2024-01-16T07:43:55;4.30;;;3.90;;
3095;SDS011;1558;42.700;23.360;2024-01-16T07:46:23;4.50;;;3.90;;
3095;SDS011;1558;42.700;23.360;2024-01-16T07:48:53;4.10;;;3.70;;
3095;SDS011;1558;42.700;23.360;2024-01-16T07:51:22;4.00;;;3.60;;
3095;SDS011;1558;42.700;23.360;2024-01-16T07:54:03;4.43;;;3.87;;
3095;SDS011;1558;42.700;23.360;2024-01-16T07:56:33;5.00;;;3.97;;
3095;SDS011;1558;42.700;23.360;2024-01-16T07:59:01;4.80;;;4.30;;
3095;SDS011;1558;42.700;23.360;2024-01-16T08:01:30;5.33;;;4.83;;
3095;SDS011;1558;42.700;23.360;2024-01-16T08:04:00;7.33;;;5.10;;
3095;SDS011;1558;42.700;23.360;2024-01-16T08:06:28;5.10;;;4.60;;
3095;SDS011;1558;42.700;23.360;2024-01-16T08:08:57;5.30;;;4.63;;
3095;SDS011;1558;42.700;23.360;2024-01-16T08:11:25;5.70;;;5.10;;
3095;SDS011;1558;42.700;23.360;2024-01-16T08:13:53;7.63;;;5.47;;
3095;SDS011;1558;42.700;23.360;2024-01-16T08:16:22;4.97;;;4.47;;
3095;SDS011;1558;42.700;23.360;2024-01-16T08:18:50;5.90;;;5.00;;
3095;SDS011;1558;42.700;23.360;2024-01-16T08:21:20;6.30;;;4.90;;
3095;SDS011;1558;42.700;23.360;2024-01-16T08:23:49;6.00;;;4.10;;
3095;SDS011;1558;42.700;23.360;2024-01-16T08:26:17;5.27;;;4.30;;
3095;SDS011;1558;42.700;23.360;2024-01-16T08:28:46;4.90;;;4.07;;
3095;SDS011;1558;42.700;23.360;2024-01-16T08:31:16;4.93;;;3.70;;
3095;SDS011;1558;42.700;23.360;2024-01-16T08:33:45;4.10;;;3.70;;
3095;SDS011;1558;42.700;23.360;2024-01-16T08:36:17;6.17;;;3.93;;
3095;SDS011;1558;42.700;23.360;2024-01-16T08:38:47;4.80;;;3.40;;
3095;SDS011;1558;42.700;23.360;2024-01-16T08:41:16;5.83;;;4.20;;
3095;SDS011;1558;42.700;23.360;2024-01-16T08:43:44;5.17;;;3.73;;
3095;SDS011;1558;42.700;23.360;2024-01-16T08:46:13;4.50;;;4.10;;
3095;SDS011;1558;42.700;23.360;2024-01-16T08:48:42;5.60;;;4.43;;
3095;SDS011;1558;42.700;23.360;2024-01-16T08:51:10;4.20;;;3.73;;
3095;SDS011;1558;42.700;23.360;2024-01-16T08:53:43;4.47;;;3.93;;
3095;SDS011;1558;42.700;23.360;2024-01-16T08:56:12;4.07;;;3.67;;
3095;SDS011;1558;42.700;23.360;2024-01-16T08:58:40;4.33;;;3.93;;
3095;SDS011;1558;42.700;23.360;2024-01-16T09:01:08;5.00;;;4.50;;
3095;SDS011;1558;42.700;23.360;2024-01-16T09:03:37;5.03;;;4.17;;
3095;SDS011;1558;42.700;23.360;2024-01-16T09:06:05;5.10;;;3.97;;
3095;SDS011;1558;42.700;23.360;2024-01-16T09:08:35;5.50;;;3.70;;
3095;SDS011;1558;42.700;23.360;2024-01-16T09:11:05;4.37;;;3.50;;
3095;SDS011;1558;42.700;23.360;2024-01-16T09:13:33;4.20;;;3.80;;
3095;SDS011;1558;42.700;23.360;2024-01-16T09:16:01;3.70;;;3.30;;
3095;SDS011;1558;42.700;23.360;2024-01-16T09:18:30;4.30;;;3.40;;
3095;SDS011;1558;42.700;23.360;2024-01-16T09:21:00;4.43;;;3.60;;
3095;SDS011;1558;42.700;23.360;2024-01-16T09:23:28;4.67;;;3.73;;
3095;SDS011;1558;42.700;23.360;2024-01-16T09:25:57;4.10;;;3.70;;
3095;SDS011;1558;42.700;23.360;2024-01-16T09:28:26;3.83;;;3.43;;
3095;SDS011;1558;42.700;23.360;2024-01-16T09:30:56;4.37;;;3.23;;
3095;SDS011;1558;42.700;23.360;2024-01-16T09:33:25;3.70;;;3.40;;
3095;SDS011;1558;42.700;23.360;2024-01-16T09:35:53;5.53;;;4.47;;
3095;SDS011;1558;42.700;23.360;2024-01-16T09:38:22;4.07;;;3.67;;
3095;SDS011;1558;42.700;23.360;2024-01-16T09:40:50;4.60;;;4.20;;
3095;SDS011;1558;42.700;23.360;2024-01-16T09:43:19;3.50;;;3.20;;
3095;SDS011;1558;42.700;23.360;2024-01-16T09:45:49;4.80;;;3.70;;
3095;SDS011;1558;42.700;23.360;2024-01-16T09:48:20;4.93;;;3.57;;
3095;SDS011;1558;42.700;23.360;2024-01-16T09:50:48;4.33;;;3.90;;
3095;SDS011;1558;42.700;23.360;2024-01-16T09:53:19;4.47;;;3.63;;
3095;SDS011;1558;42.700;23.360;2024-01-16T09:55:47;3.70;;;3.40;;
3095;SDS011;1558;42.700;23.360;2024-01-16T09:58:17;6.30;;;4.13;;
3095;SDS011;1558;42.700;23.360;2024-01-16T10:00:52;4.30;;;3.90;;
3095;SDS011;1558;42.700;23.360;2024-01-16T10:03:21;3.60;;;3.30;;
3095;SDS011;1558;42.700;23.360;2024-01-16T10:05:50;5.07;;;4.67;;
3095;SDS011;1558;42.700;23.360;2024-01-16T10:08:19;5.80;;;3.90;;
3095;SDS011;1558;42.700;23.360;2024-01-16T10:10:48;4.30;;;3.90;;
3095;SDS011;1558;42.700;23.360;2024-01-16T10:13:19;5.20;;;4.13;;
3095;SDS011;1558;42.700;23.360;2024-01-16T10:15:49;5.70;;;3.97;;
3095;SDS011;1558;42.700;23.360;2024-01-16T10:18:22;5.20;;;4.10;;
3095;SDS011;1558;42.700;23.360;2024-01-16T10:20:52;3.80;;;3.50;;
3095;SDS011;1558;42.700;23.360;2024-01-16T10:23:24;4.67;;;4.00;;
3095;SDS011;1558;42.700;23.360;2024-01-16T10:26:05;3.83;;;3.53;;
3095;SDS011;1558;42.700;23.360;2024-01-16T10:28:34;6.23;;;3.90;;
3095;SDS011;1558;42.700;23.360;2024-01-16T10:31:02;4.77;;;3.60;;
3095;SDS011;1558;42.700;23.360;2024-01-16T10:33:33;7.07;;;4.40;;
3095;SDS011;1558;42.700;23.360;2024-01-16T10:36:07;3.63;;;3.23;;
3095;SDS011;1558;42.700;23.360;2024-01-16T10:38:38;4.20;;;3.90;;
3095;SDS011;1558;42.700;23.360;2024-01-16T10:41:11;6.47;;;4.40;;
3095;SDS011;1558;42.700;23.360;2024-01-16T10:43:41;6.07;;;3.73;;
3095;SDS011;1558;42.700;23.360;2024-01-16T10:46:11;4.60;;;4.20;;
3095;SDS011;1558;42.700;23.360;2024-01-16T10:48:42;4.73;;;4.07;;
3095;SDS011;1558;42.700;23.360;2024-01-16T10:51:14;6.47;;;4.80;;
3095;SDS011;1558;42.700;23.360;2024-01-16T10:53:43;6.03;;;5.10;;
3095;SDS011;1558;42.700;23.360;2024-01-16T10:56:14;4.80;;;4.20;;
3095;SDS011;1558;42.700;23.360;2024-01-16T10:58:45;5.90;;;4.30;;
3095;SDS011;1558;42.700;23.360;2024-01-16T11:01:18;6.30;;;4.53;;
3095;SDS011;1558;42.700;23.360;2024-01-16T11:03:48;5.70;;;4.50;;
3095;SDS011;1558;42.700;23.360;2024-01-16T11:06:19;4.97;;;4.50;;
3095;SDS011;1558;42.700;23.360;2024-01-16T11:08:48;5.27;;;4.77;;
3095;SDS011;1558;42.700;23.360;2024-01-16T11:11:18;4.77;;;4.37;;
3095;SDS011;1558;42.700;23.360;2024-01-16T11:13:47;4.20;;;3.80;;
3095;SDS011;1558;42.700;23.360;2024-01-16T11:16:16;4.23;;;3.83;;
3095;SDS011;1558;42.700;23.360;2024-01-16T11:18:47;5.33;;;4.30;;
3095;SDS011;1558;42.700;23.360;2024-01-16T11:21:16;4.70;;;4.27;;
3095;SDS011;1558;42.700;23.360;2024-01-16T11:23:45;9.20;;;4.30;;
3095;SDS011;1558;42.700;23.360;2024-01-16T11:26:24;4.77;;;4.37;;
3095;SDS011;1558;42.700;23.360;2024-01-16T11:28:53;5.40;;;4.00;;
3095;SDS011;1558;42.700;23.360;2024-01-16T11:31:32;3.63;;;3.33;;
3095;SDS011;1558;42.700;23.360;2024-01-16T11:34:02;5.20;;;3.93;;
3095;SDS011;1558;42.700;23.360;2024-01-16T11:36:47;8.40;;;4.90;;
3095;SDS011;1558;42.700;23.360;2024-01-16T11:39:19;4.20;;;3.80;;
3095;SDS011;1558;42.700;23.360;2024-01-16T11:41:48;3.87;;;3.57;;
3095;SDS011;1558;42.700;23.360;2024-01-16T11:44:41;4.57;;;4.17;;
3095;SDS011;1558;42.700;23.360;2024-01-16T11:47:17;4.00;;;3.40;;
3095;SDS011;1558;42.700;23.360;2024-01-16T11:49:50;6.43;;;3.43;;
3095;SDS011;1558;42.700;23.360;2024-01-16T11:55:27;4.97;;;3.90;;
3095;SDS011;1558;42.700;23.360;2024-01-16T11:58:03;5.40;;;4.00;;
3095;SDS011;1558;42.700;23.360;2024-01-16T12:00:52;5.40;;;4.43;;
3095;SDS011;1558;42.700;23.360;2024-01-16T12:03:24;5.23;;;4.30;;
3095;SDS011;1558;42.700;23.360;2024-01-16T12:06:02;7.77;;;4.27;;
3095;SDS011;1558;42.700;23.360;2024-01-16T12:08:34;5.73;;;4.30;;
3095;SDS011;1558;42.700;23.360;2024-01-16T12:11:03;5.87;;;3.73;;
3095;SDS011;1558;42.700;23.360;2024-01-16T12:13:31;4.30;;;3.43;;
3095;SDS011;1558;42.700;23.360;2024-01-16T12:16:00;3.83;;;3.43;;
3095;SDS011;1558;42.700;23.360;2024-01-16T12:18:28;4.00;;;3.47;;
3095;SDS011;1558;42.700;23.360;2024-01-16T12:21:11;3.33;;;3.03;;
3095;SDS011;1558;42.700;23.360;2024-01-16T12:23:42;4.53;;;3.57;;
3095;SDS011;1558;42.700;23.360;2024-01-16T12:26:25;3.57;;;3.20;;
3095;SDS011;1558;42.700;23.360;2024-01-16T12:28:53;5.53;;;3.17;;
3095;SDS011;1558;42.700;23.360;2024-01-16T12:31:25;5.90;;;3.77;;
3095;SDS011;1558;42.700;23.360;2024-01-16T12:34:04;5.93;;;3.87;;
3095;SDS011;1558;42.700;23.360;2024-01-16T12:36:36;6.60;;;3.60;;
3095;SDS011;1558;42.700;23.360;2024-01-16T12:39:05;4.97;;;3.60;;
3095;SDS011;1558;42.700;23.360;2024-01-16T12:41:39;4.20;;;3.43;;
3095;SDS011;1558;42.700;23.360;2024-01-16T12:44:10;5.23;;;3.50;;
3095;SDS011;1558;42.700;23.360;2024-01-16T12:46:43;3.57;;;3.27;;
3095;SDS011;1558;42.700;23.360;2024-01-16T12:49:12;4.30;;;2.90;;
3095;SDS011;1558;42.700;23.360;2024-01-16T12:51:42;8.00;;;3.83;;
3095;SDS011;1558;42.700;23.360;2024-01-16T12:54:11;4.40;;;3.27;;
3095;SDS011;1558;42.700;23.360;2024-01-16T12:56:41;4.03;;;3.00;;
3095;SDS011;1558;42.700;23.360;2024-01-16T12:59:09;4.27;;;3.20;;
3095;SDS011;1558;42.700;23.360;2024-01-16T13:01:39;5.07;;;3.03;;
3095;SDS011;1558;42.700;23.360;2024-01-16T13:04:10;4.87;;;2.77;;
3095;SDS011;1558;42.700;23.360;2024-01-16T13:06:42;4.53;;;3.00;;
3095;SDS011;1558;42.700;23.360;2024-01-16T13:09:13;3.33;;;3.03;;
3095;SDS011;1558;42.700;23.360;2024-01-16T13:11:47;3.50;;;3.00;;
3095;SDS011;1558;42.700;23.360;2024-01-16T13:14:16;3.57;;;3.27;;
3095;SDS011;1558;42.700;23.360;2024-01-16T13:16:45;6.27;;;4.10;;
3095;SDS011;1558;42.700;23.360;2024-01-16T13:19:15;7.00;;;3.10;;
3095;SDS011;1558;42.700;23.360;2024-01-16T13:21:46;3.90;;;3.30;;
3095;SDS011;1558;42.700;23.360;2024-01-16T13:24:15;3.90;;;3.50;;
3095;SDS011;1558;42.700;23.360;2024-01-16T13:26:44;5.97;;;3.60;;
3095;SDS011;1558;42.700;23.360;2024-01-16T13:29:13;4.00;;;3.60;;
3095;SDS011;1558;42.700;23.360;2024-01-16T13:31:42;5.00;;;3.10;;
3095;SDS011;1558;42.700;23.360;2024-01-16T13:34:10;3.90;;;3.50;;
3095;SDS011;1558;42.700;23.360;2024-01-16T13:36:39;4.50;;;3.50;;
3095;SDS011;1558;42.700;23.360;2024-01-16T13:39:30;4.80;;;3.80;;
3095;SDS011;1558;42.700;23.360;2024-01-16T13:42:05;8.67;;;4.47;;
3095;SDS011;1558;42.700;23.360;2024-01-16T13:44:33;6.63;;;4.00;;
3095;SDS011;1558;42.700;23.360;2024-01-16T13:47:02;4.53;;;4.13;;
3095;SDS011;1558;42.700;23.360;2024-01-16T13:49:37;5.63;;;3.70;;
3095;SDS011;1558;42.700;23.360;2024-01-16T13:52:07;4.10;;;3.50;;
3095;SDS011;1558;42.700;23.360;2024-01-16T13:54:38;3.40;;;2.93;;
3095;SDS011;1558;42.700;23.360;2024-01-16T13:57:06;3.50;;;3.20;;
3095;SDS011;1558;42.700;23.360;2024-01-16T13:59:39;4.87;;;3.47;;
3095;SDS011;1558;42.700;23.360;2024-01-16T14:02:07;6.50;;;3.90;;
3095;SDS011;1558;42.700;23.360;2024-01-16T14:04:36;6.90;;;4.10;;
3095;SDS011;1558;42.700;23.360;2024-01-16T14:07:04;10.13;;;4.40;;
3095;SDS011;1558;42.700;23.360;2024-01-16T14:09:41;8.17;;;4.30;;
3095;SDS011;1558;42.700;23.360;2024-01-16T14:12:11;8.93;;;4.87;;
3095;SDS011;1558;42.700;23.360;2024-01-16T14:14:41;4.67;;;4.17;;
3095;SDS011;1558;42.700;23.360;2024-01-16T14:17:10;7.90;;;4.27;;
3095;SDS011;1558;42.700;23.360;2024-01-16T14:19:38;5.07;;;4.10;;
3095;SDS011;1558;42.700;23.360;2024-01-16T14:22:06;4.97;;;3.77;;
3095;SDS011;1558;42.700;23.360;2024-01-16T14:24:35;7.23;;;4.00;;
3095;SDS011;1558;42.700;23.360;2024-01-16T14:27:07;4.93;;;3.70;;
3095;SDS011;1558;42.700;23.360;2024-01-16T14:29:37;4.87;;;4.40;;
3095;SDS011;1558;42.700;23.360;2024-01-16T14:32:06;7.20;;;4.90;;
3095;SDS011;1558;42.700;23.360;2024-01-16T14:34:35;4.20;;;3.80;;
3095;SDS011;1558;42.700;23.360;2024-01-16T14:37:03;4.67;;;4.07;;
3095;SDS011;1558;42.700;23.360;2024-01-16T14:39:31;4.20;;;3.67;;
3095;SDS011;1558;42.700;23.360;2024-01-16T14:42:02;5.87;;;4.03;;
3095;SDS011;1558;42.700;23.360;2024-01-16T14:44:32;6.17;;;4.13;;
3095;SDS011;1558;42.700;23.360;2024-01-16T14:47:00;5.93;;;3.90;;
3095;SDS011;1558;42.700;23.360;2024-01-16T14:49:30;5.90;;;3.80;;
3095;SDS011;1558;42.700;23.360;2024-01-16T14:51:59;6.73;;;4.70;;
3095;SDS011;1558;42.700;23.360;2024-01-16T14:54:28;6.87;;;6.07;;
3095;SDS011;1558;42.700;23.360;2024-01-16T14:56:56;8.00;;;6.50;;
3095;SDS011;1558;42.700;23.360;2024-01-16T14:59:25;10.73;;;7.07;;
3095;SDS011;1558;42.700;23.360;2024-01-16T15:01:55;10.27;;;6.23;;
3095;SDS011;1558;42.700;23.360;2024-01-16T15:04:23;8.50;;;6.00;;
3095;SDS011;1558;42.700;23.360;2024-01-16T15:06:53;9.73;;;5.93;;
3095;SDS011;1558;42.700;23.360;2024-01-16T15:09:22;6.23;;;4.83;;
3095;SDS011;1558;42.700;23.360;2024-01-16T15:11:50;7.83;;;5.53;;
3095;SDS011;1558;42.700;23.360;2024-01-16T15:14:19;10.10;;;6.07;;